This is the latest recevied weather packets stored in our database for station/object IZ1MEU-13. If no packets are shown the sender has not sent any weather packets the latest 10 day(s).
| Time | Temp. | Humidity | Pressure | Rain* | Wind** | Luminosity | Snow |
|---|---|---|---|---|---|---|---|
| 1778187805 | 11.11° C | 64% | 1016.3 hPa | - | - | - | - |
| 1778186601 | 11.11° C | 64% | 1016.2 hPa | - | - | - | - |
| 1778185397 | 11.11° C | 63% | 1016.2 hPa | - | - | - | - |
| 1778184192 | 11.11° C | 65% | 1016 hPa | - | - | - | - |
| 1778182988 | 11.11° C | 65% | 1015.7 hPa | - | - | - | - |
| 1778181784 | 11.11° C | 64% | 1015.5 hPa | - | - | - | - |
| 1778180579 | 11.67° C | 63% | 1015.3 hPa | - | - | - | - |
| 1778179375 | 12.22° C | 60% | 1015.2 hPa | - | - | - | - |
| 1778178171 | 13.33° C | 57% | 1015.3 hPa | - | - | - | - |
| 1778176967 | 14.44° C | 52% | 1015.1 hPa | - | - | - | - |
| 1778175762 | 15.56° C | 49% | 1015 hPa | - | - | - | - |
| 1778174558 | 17.22° C | 46% | 1015 hPa | - | - | - | - |
| 1778173354 | 17.22° C | 45% | 1014.9 hPa | - | - | - | - |
| 1778172150 | 17.78° C | 45% | 1014.8 hPa | - | - | - | - |
| 1778170945 | 18.89° C | 43% | 1014.8 hPa | - | - | - | - |
| 1778169741 | 19.44° C | 45% | 1014.6 hPa | - | - | - | - |
| 1778168537 | 17.78° C | 48% | 1014.7 hPa | - | - | - | - |
| 1778167333 | 18.33° C | 46% | 1014.5 hPa | - | - | - | - |
| 1778166129 | 20° C | 45% | 1014.5 hPa | - | - | - | - |
| 1778164924 | 17.78° C | 48% | 1014.6 hPa | - | - | - | - |
| 1778163720 | 17.78° C | 47% | 1014.7 hPa | - | - | - | - |
| 1778162517 | 17.78° C | 46% | 1015 hPa | - | - | - | - |
| 1778161313 | 17.78° C | 48% | 1015.1 hPa | - | - | - | - |
| 1778160109 | 18.33° C | 46% | 1015.3 hPa | - | - | - | - |
| 1778158905 | 17.78° C | 49% | 1015.3 hPa | - | - | - | - |
* Rain since midnight (hover to see other rain measurements)
** Current wind speed in m/s (hover to see current wind gust speed)